Monday, December 18, 2017, 12:43 PM GMT
Back to Local

CYKZ, Toronto Buttonville

Location: , , Canada Lat: 43.867
Local Time: 12:43 PM GMT (12:43 GMT) Lon: -79.367
Time Zone: GMT Elev: 649 ft

Show me the last for .
Show Coded

Time T Td Feel RH Dir Speed Gust Alt SLP Vis Weather Sky Remarks
2017-12-18 12:29 23 21 18 92 90° 3 - 29.94 29.98 1 -SN VV006 None
2017-12-18 12:20 23 21 - 92 100° 2 - 29.94 29.98 1 -SN VV003 None
2017-12-18 12:00 23 21 18 92 70° 3 - 29.95 29.99 1 -SN BR OVC002 None
2017-12-18 11:13 23 21 - 92 Variable 2 - 29.97 30.01 1 -FZDZ BR OVC003 None
2017-12-18 11:00 23 21 - 92 130° 2 - 29.97 30.01 2 -FZDZ BR OVC004 None
2017-12-18 10:51 23 19 18 85 120° 3 - 29.97 30.01 4 -FZDZ BR OVC004 None
2017-12-18 10:46 23 19 - 85 120° 2 - 29.97 30.01 6 BR OVC004 None
2017-12-18 10:00 23 19 17 85 80° 5 - 29.97 30.01 7 OVC005 None
2017-12-18 09:00 21 19 15 92 80° 5 - 29.98 30.02 8 OVC005 None
2017-12-18 08:00 21 18 - 85 70° 2 - 30.01 30.05 8 BKN005 OVC014 None
2017-12-18 07:00 21 18 16 85 50° 3 - 30.03 30.07 10 OVC005 None
2017-12-18 06:00 19 16 11 85 70° 6 - 30.05 30.09 15 OVC006 None
2017-12-18 05:00 19 14 11 79 80° 6 - 30.07 30.11 15 OVC006 None
2017-12-18 04:00 18 10 12 72 40° 3 - 30.08 30.13 15 OVC007 None
2017-12-18 03:22 18 7 9 61 70° 6 - 30.09 30.13 15 OVC007 None
2017-12-18 03:00 16 7 10 66 50° 3 - 30.10 30.15 15 OVC008 None
2017-12-18 02:39 16 7 9 66 60° 5 - 30.10 30.15 15 OVC009 None
2017-12-18 02:00 16 7 7 66 50° 6 - 30.11 30.16 15 OVC010 None
2017-12-18 01:00 16 9 4 72 80° 9 - 30.15 30.20 15 BKN010 OVC047 None
2017-12-18 00:00 16 10 6 78 70° 7 - 30.18 30.23 15 OVC009 None
2017-12-17 23:00 16 7 7 66 60° 6 - 30.18 30.22 15 OVC010 None
2017-12-17 22:51 16 7 5 66 60° 8 - 30.18 30.22 15 OVC010 None
2017-12-17 22:00 18 7 9 61 50° 6 - 30.19 30.23 15 OVC011 None
2017-12-17 21:00 18 5 11 57 30° 5 - 30.20 30.24 15 BKN010 None
2017-12-17 20:00 18 1 9 48 80° 6 - 30.21 30.25 15 BKN010 BKN160 BKN210 None
2017-12-17 19:00 16 -2 10 44 60° 3 - 30.23 30.28 15 FEW170 BKN220 None
2017-12-17 18:00 16 -2 9 44 70° 5 - 30.24 30.29 15 FEW160 BKN220 None
2017-12-17 17:00 14 1 5 56 30° 6 - 30.26 30.31 15 FEW160 BKN220 None
2017-12-17 16:00 10 3 4 72 80° 3 - 30.30 30.35 15 FEW150 BKN220 None
2017-12-17 15:00 9 1 0 71 40° 5 - 30.31 30.36 15 FEW160 SCT230 None
2017-12-17 14:00 7 1 - 77 50° 2 - 30.31 30.36 15 SCT160 SCT230 None
2017-12-17 13:00 3 0 - 84 320° 2 - 30.30 30.35 15 FEW020 FEW100 FEW230 None

Support USWX by starting your Amazon purchase here.